createdAt,value
2023-02-27T00:00:25.594Z,3.80
2023-02-27T00:01:25.811Z,4.60
2023-02-27T00:02:39.122Z,3.70
2023-02-27T00:03:25.485Z,3.60
2023-02-27T00:04:25.420Z,4.10
2023-02-27T00:05:25.382Z,3.60
2023-02-27T05:10:49.627Z,4.10
2023-02-27T05:58:45.189Z,10.70
2023-02-27T05:59:45.151Z,10.00
2023-02-27T06:00:45.083Z,10.00
2023-02-27T06:01:46.380Z,9.40
2023-02-27T06:02:44.974Z,9.70
2023-02-27T06:03:44.952Z,10.00
2023-02-27T06:04:44.887Z,9.70
2023-02-27T06:05:44.835Z,9.50
2023-02-27T06:06:44.778Z,9.50
2023-02-27T06:07:44.732Z,9.60
2023-02-27T06:08:44.699Z,9.80
2023-02-27T06:09:44.704Z,9.90
2023-02-27T06:10:44.584Z,9.60
2023-02-27T06:11:44.544Z,10.00
2023-02-27T06:12:44.512Z,10.00
2023-02-27T06:13:44.440Z,10.00
2023-02-27T06:14:44.404Z,9.80
2023-02-27T06:15:44.342Z,9.10
2023-02-27T06:16:44.364Z,10.40
2023-02-27T06:17:44.245Z,10.00
2023-02-27T06:18:44.195Z,9.90
2023-02-27T06:19:44.172Z,9.10
2023-02-27T06:20:44.129Z,9.90
2023-02-27T06:21:44.079Z,9.90
2023-02-27T06:22:44.010Z,9.10
2023-02-27T06:23:43.958Z,10.00
2023-02-27T06:24:43.900Z,9.30
2023-02-27T06:25:43.861Z,9.90
2023-02-27T06:26:43.839Z,9.30
2023-02-27T06:27:43.771Z,9.30
2023-02-27T06:28:43.771Z,9.00
2023-02-27T06:29:43.667Z,9.10
2023-02-27T06:30:45.334Z,11.20
2023-02-27T06:31:43.617Z,9.70
2023-02-27T06:32:43.522Z,10.10
2023-02-27T06:33:43.474Z,9.80
2023-02-27T06:34:43.417Z,10.10
2023-02-27T06:35:43.414Z,9.80
2023-02-27T06:36:43.326Z,9.40
2023-02-27T06:37:43.288Z,9.40
2023-02-27T06:38:43.226Z,9.20
2023-02-27T06:39:43.182Z,9.10
2023-02-27T06:40:43.125Z,8.90
2023-02-27T06:41:43.104Z,8.90
2023-02-27T06:42:43.049Z,9.30
2023-02-27T06:43:42.985Z,8.90
2023-02-27T06:44:42.940Z,9.40
2023-02-27T06:45:42.893Z,9.20
2023-02-27T06:46:42.843Z,10.00
2023-02-27T06:47:42.805Z,9.60
2023-02-27T06:48:42.776Z,10.90
2023-02-27T06:49:42.698Z,10.00
2023-02-27T06:50:42.683Z,9.30
2023-02-27T06:51:44.911Z,9.50
2023-02-27T06:52:42.568Z,9.70
2023-02-27T06:53:42.521Z,10.10
2023-02-27T06:54:42.459Z,9.70
2023-02-27T06:55:42.414Z,9.50
2023-02-27T06:56:42.362Z,9.70
2023-02-27T06:57:42.321Z,9.20
2023-02-27T06:58:42.277Z,10.40
2023-02-27T06:59:42.224Z,10.30
2023-02-27T07:00:42.167Z,9.90
2023-02-27T07:01:42.185Z,10.50
2023-02-27T07:02:42.072Z,8.80
2023-02-27T07:03:42.024Z,7.60
2023-02-27T07:04:42.017Z,7.40
2023-02-27T07:05:41.959Z,7.20
2023-02-27T07:07:36.367Z,7.20
2023-02-27T07:07:41.847Z,7.60
2023-02-27T07:09:01.476Z,6.40
2023-02-27T07:09:41.746Z,7.20
2023-02-27T07:10:41.697Z,5.90
2023-02-27T07:11:41.663Z,5.60
2023-02-27T07:12:41.620Z,5.30
2023-02-27T07:13:41.563Z,5.00
2023-02-27T07:14:41.511Z,4.70
2023-02-27T07:15:41.506Z,6.00
2023-02-27T07:16:41.423Z,6.50
2023-02-27T07:17:41.403Z,5.40
2023-02-27T07:18:41.331Z,5.40
2023-02-27T07:19:41.289Z,6.20
2023-02-27T07:20:41.242Z,6.10
2023-02-27T07:21:41.200Z,5.10
2023-02-27T07:22:41.153Z,5.00
2023-02-27T07:23:41.120Z,5.40
2023-02-27T07:24:41.076Z,5.90
2023-02-27T07:25:41.028Z,6.30
2023-02-27T07:26:40.982Z,8.10
2023-02-27T07:27:40.937Z,9.00
2023-02-27T07:28:40.962Z,11.10
2023-02-27T07:29:40.855Z,10.00
2023-02-27T07:30:40.833Z,13.20
2023-02-27T07:31:40.764Z,11.80
2023-02-27T07:32:40.714Z,12.50
2023-02-27T07:33:40.683Z,9.80
2023-02-27T07:34:40.646Z,12.40
2023-02-27T07:35:40.621Z,11.50
2023-02-27T07:36:40.558Z,19.00
2023-02-27T07:37:40.510Z,10.80
2023-02-27T07:38:40.467Z,9.00
2023-02-27T07:39:40.437Z,8.30
2023-02-27T07:40:40.383Z,6.20
2023-02-27T07:41:40.351Z,6.00
2023-02-27T07:42:40.322Z,5.40
2023-02-27T07:43:40.264Z,6.10
2023-02-27T07:44:40.220Z,5.60
2023-02-27T07:45:40.183Z,5.70
2023-02-27T07:46:40.261Z,5.20
2023-02-27T07:47:40.102Z,5.00
2023-02-27T07:48:40.066Z,6.80
2023-02-27T07:49:40.016Z,5.40
2023-02-27T07:50:40.017Z,5.80
2023-02-27T07:51:39.943Z,6.90
2023-02-27T07:52:39.899Z,4.40
2023-02-27T07:53:39.874Z,5.00
2023-02-27T07:54:39.822Z,5.30
2023-02-27T07:55:39.797Z,5.50
2023-02-27T07:56:39.736Z,4.80
2023-02-27T07:57:39.694Z,6.00
2023-02-27T07:58:39.662Z,4.80
2023-02-27T07:59:39.617Z,7.00
2023-02-27T08:00:39.576Z,6.10
2023-02-27T08:01:39.566Z,5.60
2023-02-27T08:02:39.553Z,6.90
2023-02-27T08:03:39.482Z,8.30
2023-02-27T08:04:39.459Z,5.30
2023-02-27T08:05:39.409Z,7.20
2023-02-27T08:06:39.342Z,4.70
2023-02-27T08:07:39.318Z,8.30
2023-02-27T08:08:39.266Z,5.10
2023-02-27T08:09:39.241Z,4.80
2023-02-27T08:10:39.184Z,5.90
2023-02-27T08:11:39.171Z,5.90
2023-02-27T08:12:39.095Z,5.40
2023-02-27T08:14:39.041Z,5.80
2023-02-27T08:15:38.993Z,5.80
2023-02-27T08:16:39.036Z,4.30
2023-02-27T08:17:38.908Z,4.60
2023-02-27T08:18:38.869Z,4.00
2023-02-27T08:19:38.835Z,4.50
2023-02-27T08:20:38.800Z,5.50
2023-02-27T08:21:38.757Z,4.40
2023-02-27T08:22:38.732Z,5.20
2023-02-27T08:23:38.675Z,4.40
2023-02-27T08:24:38.652Z,6.10
2023-02-27T08:25:38.629Z,5.10
2023-02-27T08:26:38.581Z,4.70
2023-02-27T08:27:38.543Z,3.90
2023-02-27T08:28:38.530Z,4.90
2023-02-27T08:29:42.341Z,5.20
2023-02-27T08:30:38.414Z,3.60
2023-02-27T08:31:38.733Z,5.10
2023-02-27T08:32:38.320Z,5.30
2023-02-27T08:33:39.002Z,6.80
2023-02-27T08:34:45.714Z,3.90
2023-02-27T08:37:09.879Z,4.60
2023-02-27T08:38:09.823Z,6.10
2023-02-27T08:39:09.840Z,7.20
2023-02-27T08:40:09.764Z,5.60
2023-02-27T08:41:09.724Z,4.90
2023-02-27T08:42:09.670Z,4.70
2023-02-27T08:44:56.041Z,3.80
2023-02-27T08:45:56.018Z,4.40
2023-02-27T08:46:55.940Z,5.10
2023-02-27T08:47:55.897Z,4.10
2023-02-27T08:48:55.979Z,4.50
2023-02-27T08:49:55.827Z,5.50
2023-02-27T08:50:57.831Z,3.70
2023-02-27T08:51:55.767Z,4.00
2023-02-27T08:52:55.707Z,4.80
2023-02-27T08:53:55.672Z,3.90
2023-02-27T08:54:55.639Z,4.20
2023-02-27T08:55:55.596Z,4.00
2023-02-27T08:56:55.579Z,5.30
2023-02-27T08:57:55.525Z,5.20
2023-02-27T08:58:55.490Z,4.30
2023-02-27T08:59:55.461Z,3.80
2023-02-27T09:00:55.433Z,4.10
2023-02-27T09:01:55.370Z,4.70
2023-02-27T09:02:55.370Z,3.80
2023-02-27T09:03:55.300Z,3.70
2023-02-27T09:04:55.275Z,4.40
2023-02-27T09:05:55.221Z,4.00
2023-02-27T09:06:55.190Z,3.90
2023-02-27T09:07:55.155Z,5.90
2023-02-27T09:08:55.115Z,3.20
2023-02-27T09:09:55.097Z,3.40
2023-02-27T09:10:55.052Z,4.20
2023-02-27T09:11:55.015Z,2.80
2023-02-27T09:12:54.972Z,3.20
2023-02-27T09:13:54.944Z,4.60
2023-02-27T09:14:54.903Z,3.60
2023-02-27T09:15:54.858Z,5.30
2023-02-27T09:16:54.887Z,5.70
2023-02-27T09:17:54.776Z,4.40
2023-02-27T09:18:54.741Z,3.30
2023-02-27T09:19:57.248Z,4.30
2023-02-27T09:20:54.665Z,3.20
2023-02-27T09:21:54.664Z,4.30
2023-02-27T09:22:54.599Z,4.50
2023-02-27T09:23:54.580Z,2.70
2023-02-27T09:24:54.637Z,3.00
2023-02-27T09:25:54.472Z,3.60
2023-02-27T09:26:54.476Z,3.60
2023-02-27T09:27:54.396Z,3.30
2023-02-27T09:28:54.365Z,3.40
2023-02-27T09:29:54.328Z,3.00
2023-02-27T09:30:54.296Z,3.50
2023-02-27T09:31:54.328Z,3.90
2023-02-27T09:32:54.315Z,3.70
2023-02-27T09:33:54.186Z,3.40
2023-02-27T09:34:54.160Z,3.60
2023-02-27T09:35:54.100Z,3.10
2023-02-27T09:36:54.074Z,3.40
2023-02-27T09:37:54.024Z,3.50
2023-02-27T09:38:54.005Z,3.90
2023-02-27T09:39:53.954Z,3.80
2023-02-27T09:40:53.907Z,4.80
2023-02-27T09:41:53.873Z,4.50
2023-02-27T09:42:53.887Z,3.80
2023-02-27T09:43:53.800Z,3.20
2023-02-27T09:44:53.770Z,3.30
2023-02-27T09:45:53.767Z,3.60
2023-02-27T09:46:53.702Z,3.20
2023-02-27T09:47:53.666Z,2.70
2023-02-27T09:48:53.607Z,2.90
2023-02-27T09:49:53.587Z,2.80
2023-02-27T09:50:53.544Z,2.90
2023-02-27T09:51:53.590Z,3.60
2023-02-27T09:52:53.469Z,3.40
2023-02-27T09:53:53.426Z,5.00
2023-02-27T09:54:53.388Z,3.00
2023-02-27T09:55:53.344Z,4.00
2023-02-27T09:56:53.327Z,4.30
2023-02-27T09:57:53.271Z,3.50
2023-02-27T09:58:53.241Z,4.60
2023-02-27T09:59:53.200Z,3.80
2023-02-27T10:00:53.166Z,3.00
2023-02-27T10:01:53.130Z,3.30
2023-02-27T10:02:53.175Z,3.20
2023-02-27T10:03:53.055Z,3.60
2023-02-27T10:04:53.053Z,3.20
2023-02-27T10:05:52.978Z,4.10
2023-02-27T10:06:52.976Z,4.20
2023-02-27T10:07:52.939Z,2.90
2023-02-27T10:08:52.872Z,3.60
2023-02-27T10:09:52.845Z,2.50
2023-02-27T10:10:52.809Z,2.00
2023-02-27T10:11:52.768Z,2.90
2023-02-27T10:12:52.734Z,3.40
2023-02-27T10:13:52.703Z,4.20
2023-02-27T10:14:52.670Z,3.20
2023-02-27T10:15:52.619Z,3.40
2023-02-27T10:16:52.636Z,3.40
2023-02-27T10:17:52.572Z,3.80
2023-02-27T10:18:52.524Z,4.00
2023-02-27T10:19:52.489Z,4.20
2023-02-27T10:20:52.440Z,4.70
2023-02-27T10:21:52.443Z,3.90
2023-02-27T10:22:52.380Z,3.80
2023-02-27T10:23:52.331Z,3.20
2023-02-27T10:24:52.302Z,4.20
2023-02-27T10:25:52.265Z,2.80
2023-02-27T10:26:52.224Z,3.00
2023-02-27T10:27:52.186Z,4.60
2023-02-27T10:28:52.159Z,2.90
2023-02-27T10:29:52.133Z,3.70
2023-02-27T10:30:52.119Z,2.70
2023-02-27T10:31:52.069Z,7.40
2023-02-27T10:32:52.001Z,3.70
2023-02-27T10:33:51.984Z,4.20
2023-02-27T10:34:51.931Z,3.50
2023-02-27T10:35:51.983Z,3.60
2023-02-27T10:36:51.865Z,4.00
2023-02-27T10:37:51.830Z,3.80
2023-02-27T10:38:51.784Z,2.30
2023-02-27T10:39:51.762Z,3.00
2023-02-27T10:40:51.708Z,2.90
2023-02-27T10:50:10.739Z,3.20
2023-02-27T10:51:10.673Z,4.70
2023-02-27T10:52:10.661Z,4.70
2023-02-27T10:53:10.627Z,4.20
2023-02-27T10:54:10.557Z,2.80
2023-02-27T10:55:10.512Z,4.60
2023-02-27T10:56:10.468Z,5.00
2023-02-27T10:57:10.424Z,4.90
2023-02-27T10:58:10.390Z,3.90
2023-02-27T10:59:10.342Z,4.50
2023-02-27T11:00:10.329Z,3.60
2023-02-27T11:01:10.346Z,3.20
2023-02-27T11:02:10.214Z,3.90
2023-02-27T11:03:10.186Z,4.30
2023-02-27T11:04:10.168Z,2.60
2023-02-27T11:05:10.115Z,4.50
2023-02-27T11:06:10.055Z,4.70
2023-02-27T11:07:10.021Z,3.80
2023-02-27T11:08:09.970Z,5.30
2023-02-27T11:09:09.940Z,4.00
2023-02-27T11:10:09.889Z,2.30
2023-02-27T11:11:09.860Z,3.70
2023-02-27T11:12:09.816Z,4.40
2023-02-27T11:13:09.763Z,3.70
2023-02-27T11:14:09.727Z,3.40
2023-02-27T11:15:09.686Z,6.20
2023-02-27T11:16:09.707Z,4.80
2023-02-27T11:17:09.605Z,4.80
2023-02-27T11:18:09.568Z,3.50
2023-02-27T11:19:09.522Z,3.60
2023-02-27T11:20:09.473Z,4.00
2023-02-27T11:21:09.434Z,5.40
2023-02-27T11:22:09.404Z,3.60
2023-02-27T11:23:09.353Z,4.00
2023-02-27T11:24:09.315Z,3.50
2023-02-27T11:25:09.270Z,4.20
2023-02-27T11:26:09.229Z,3.90
2023-02-27T11:27:09.206Z,3.50
2023-02-27T11:28:09.160Z,3.90
2023-02-27T11:29:09.116Z,4.30
2023-02-27T11:30:09.132Z,4.20
2023-02-27T11:31:09.042Z,3.90
2023-02-27T11:32:08.986Z,4.30
2023-02-27T11:33:08.941Z,3.70
2023-02-27T11:34:08.910Z,5.30
2023-02-27T11:35:08.863Z,3.10
2023-02-27T11:36:08.830Z,5.60
2023-02-27T11:37:08.788Z,3.60
2023-02-27T11:38:08.731Z,3.20
2023-02-27T11:39:08.728Z,3.30
2023-02-27T11:40:08.648Z,2.90
2023-02-27T11:41:08.617Z,3.40
2023-02-27T11:42:08.564Z,3.40
2023-02-27T11:43:08.532Z,2.90
2023-02-27T11:44:08.491Z,3.50
2023-02-27T11:45:08.481Z,3.90
2023-02-27T11:46:33.236Z,4.70
2023-02-27T11:47:08.381Z,3.30
2023-02-27T11:48:08.323Z,3.50
2023-02-27T11:49:08.309Z,3.20
2023-02-27T11:50:08.236Z,2.80
2023-02-27T11:51:08.225Z,3.40
2023-02-27T11:52:08.171Z,3.50
2023-02-27T11:53:08.125Z,3.80
2023-02-27T11:54:08.081Z,3.20
2023-02-27T11:55:08.052Z,4.20
2023-02-27T11:56:08.022Z,3.80
2023-02-27T11:57:08.831Z,3.00
2023-02-27T11:58:07.914Z,4.00
2023-02-27T11:59:18.049Z,3.10
2023-02-27T12:00:15.379Z,2.50
2023-02-27T12:01:19.384Z,3.40
2023-02-27T12:02:11.375Z,4.30
2023-02-27T12:03:41.409Z,2.90
2023-02-27T12:05:34.399Z,4.40
2023-02-27T12:06:18.034Z,2.90
2023-02-27T12:07:36.895Z,3.70
2023-02-27T12:08:11.395Z,4.40
2023-02-27T12:09:17.880Z,3.10
2023-02-27T12:11:43.612Z,4.00
2023-02-27T12:12:47.061Z,3.30
2023-02-27T12:13:47.588Z,5.00
2023-02-27T12:15:07.066Z,2.90
2023-02-27T12:17:13.999Z,3.70
2023-02-27T12:18:13.893Z,3.20
2023-02-27T12:19:13.774Z,3.00
2023-02-27T12:20:26.001Z,5.10
2023-02-27T12:21:18.441Z,3.10
2023-02-27T12:22:15.760Z,4.30
2023-02-27T12:23:36.995Z,5.20
2023-02-27T12:24:17.448Z,4.60
2023-02-27T12:25:33.947Z,3.70
2023-02-27T12:26:18.000Z,5.00
2023-02-27T12:27:16.443Z,3.30
2023-02-27T12:28:17.488Z,3.20
2023-02-27T12:31:54.266Z,2.90
2023-02-27T12:32:54.632Z,4.20
2023-02-27T12:33:54.158Z,4.50
2023-02-27T12:34:56.649Z,5.60
2023-02-27T12:36:02.251Z,4.00
2023-02-27T12:36:54.166Z,2.90
2023-02-27T12:37:53.802Z,4.20
2023-02-27T12:38:53.810Z,2.90
2023-02-27T12:39:53.950Z,4.40
2023-02-27T12:40:53.805Z,2.40
2023-02-27T12:41:53.022Z,3.20
2023-02-27T12:42:53.595Z,3.30
2023-02-27T12:43:53.673Z,3.10
2023-02-27T12:44:53.793Z,3.90
2023-02-27T12:45:53.464Z,2.40
2023-02-27T12:46:53.833Z,2.70
2023-02-27T12:47:53.653Z,3.60
2023-02-27T12:48:53.945Z,3.40
2023-02-27T12:49:53.387Z,2.80
2023-02-27T12:50:54.144Z,3.40
2023-02-27T12:51:53.162Z,3.90
2023-02-27T12:52:53.329Z,3.10
2023-02-27T12:53:53.268Z,3.20
2023-02-27T12:54:53.912Z,4.00
2023-02-27T12:55:53.787Z,3.50
2023-02-27T12:56:53.071Z,3.00
2023-02-27T12:57:56.672Z,3.90
2023-02-27T12:58:52.529Z,3.50
2023-02-27T12:59:52.976Z,4.20
2023-02-27T13:00:53.027Z,4.40
2023-02-27T13:01:52.911Z,3.70
2023-02-27T13:02:53.150Z,3.80
2023-02-27T13:03:52.814Z,3.70
2023-02-27T13:04:52.848Z,2.70
2023-02-27T13:05:52.580Z,2.60
2023-02-27T13:06:52.815Z,4.40
2023-02-27T13:07:52.402Z,3.20
2023-02-27T13:08:52.623Z,2.40
2023-02-27T13:09:52.526Z,4.20
2023-02-27T13:10:52.517Z,3.60
2023-02-27T13:11:52.785Z,3.30
2023-02-27T13:12:52.607Z,3.30
2023-02-27T13:13:52.455Z,4.10
2023-02-27T13:14:52.516Z,3.10
2023-02-27T13:15:52.361Z,3.20
2023-02-27T13:16:52.393Z,4.40
2023-02-27T13:17:51.801Z,2.70
2023-02-27T13:18:52.189Z,2.60
2023-02-27T13:19:52.151Z,3.80
2023-02-27T13:20:52.158Z,2.70
2023-02-27T13:21:52.105Z,2.40
2023-02-27T13:22:52.848Z,3.00
2023-02-27T13:23:51.969Z,3.30
2023-02-27T13:24:51.997Z,2.30
2023-02-27T13:25:52.102Z,4.80
2023-02-27T13:26:51.585Z,4.00
2023-02-27T13:27:52.026Z,3.40
2023-02-27T13:28:56.138Z,2.60
2023-02-27T13:30:13.518Z,3.30
2023-02-27T13:30:51.862Z,4.20
2023-02-27T13:31:52.307Z,3.20
2023-02-27T13:32:52.486Z,3.70
2023-02-27T13:33:51.659Z,3.00
2023-02-27T13:34:51.244Z,3.80
2023-02-27T13:35:51.640Z,2.90
2023-02-27T13:36:54.751Z,2.20
2023-02-27T13:37:53.205Z,4.60
2023-02-27T13:38:57.229Z,3.20
2023-02-27T13:39:54.352Z,3.70
2023-02-27T13:40:54.184Z,5.00
2023-02-27T13:41:52.181Z,2.90
2023-02-27T13:42:51.254Z,4.40
2023-02-27T13:43:52.808Z,3.20
2023-02-27T13:44:50.930Z,3.80
2023-02-27T13:45:51.079Z,4.00
2023-02-27T13:46:51.087Z,3.30
2023-02-27T13:47:50.737Z,3.60
2023-02-27T13:48:50.764Z,4.40
2023-02-27T13:49:50.888Z,2.10
2023-02-27T13:50:50.827Z,3.70
2023-02-27T13:51:50.793Z,3.30
2023-02-27T13:52:50.297Z,5.10
2023-02-27T13:53:50.811Z,3.80
2023-02-27T13:54:51.911Z,3.00
2023-02-27T13:55:50.766Z,3.80
2023-02-27T13:56:50.672Z,4.20
2023-02-27T13:57:50.629Z,4.30
2023-02-27T13:58:50.128Z,4.30
2023-02-27T13:59:50.527Z,5.50
2023-02-27T14:00:50.469Z,2.50
2023-02-27T14:01:50.336Z,4.10
2023-02-27T14:02:58.736Z,4.70
2023-02-27T14:03:50.301Z,4.50
2023-02-27T14:04:50.408Z,3.10
2023-02-27T14:05:50.100Z,3.50
2023-02-27T14:06:50.369Z,3.10
2023-02-27T14:07:50.223Z,3.60
2023-02-27T14:08:50.378Z,4.50
2023-02-27T14:09:49.974Z,4.20
2023-02-27T14:10:50.229Z,2.70
2023-02-27T14:11:49.488Z,4.30
2023-02-27T14:12:50.264Z,4.10
2023-02-27T14:13:50.726Z,2.30
2023-02-27T14:14:49.323Z,4.20
2023-02-27T14:15:49.735Z,3.80
2023-02-27T14:16:50.789Z,4.30
2023-02-27T14:17:52.385Z,3.60
2023-02-27T14:18:49.276Z,2.90
2023-02-27T14:19:49.480Z,4.00
2023-02-27T14:20:49.419Z,5.40
2023-02-27T14:21:49.346Z,3.70
2023-02-27T14:22:49.457Z,3.80
2023-02-27T14:23:49.145Z,4.60
2023-02-27T14:25:01.536Z,2.30
2023-02-27T14:25:49.014Z,2.10
2023-02-27T14:26:48.432Z,4.10
2023-02-27T14:27:48.345Z,3.50
2023-02-27T14:28:48.236Z,3.70
2023-02-27T14:29:48.212Z,4.10
2023-02-27T14:30:49.112Z,2.90
2023-02-27T14:31:49.140Z,3.60
2023-02-27T14:32:48.074Z,5.30
2023-02-27T14:33:48.742Z,3.90
2023-02-27T14:34:48.600Z,3.40
2023-02-27T14:35:48.830Z,3.30
2023-02-27T14:36:48.916Z,4.60
2023-02-27T14:37:48.733Z,4.40
2023-02-27T14:38:48.788Z,2.90
2023-02-27T14:39:48.578Z,4.60
2023-02-27T14:40:48.569Z,3.10
2023-02-27T14:41:47.679Z,3.50
2023-02-27T14:42:48.616Z,4.20
2023-02-27T14:43:48.479Z,3.00
2023-02-27T14:44:48.458Z,3.90
2023-02-27T14:45:48.436Z,3.50
2023-02-27T14:46:48.333Z,3.90
2023-02-27T14:47:48.308Z,4.50
2023-02-27T14:48:48.241Z,4.70
2023-02-27T14:49:48.359Z,4.90
2023-02-27T14:50:48.108Z,4.10
2023-02-27T14:51:47.247Z,7.40
2023-02-27T14:52:48.222Z,5.50
2023-02-27T14:53:50.092Z,4.90
2023-02-27T14:54:47.913Z,4.00
2023-02-27T14:55:47.843Z,3.50
2023-02-27T14:56:47.809Z,2.90
2023-02-27T14:57:47.869Z,3.40
2023-02-27T14:58:52.360Z,2.30
2023-02-27T14:59:47.714Z,3.20
2023-02-27T15:00:47.702Z,3.00
2023-02-27T15:01:47.809Z,3.70
2023-02-27T15:02:47.787Z,2.90
2023-02-27T15:03:47.948Z,3.30
2023-02-27T15:04:47.634Z,4.10
2023-02-27T15:05:46.662Z,3.20
2023-02-27T15:06:46.574Z,3.90
2023-02-27T15:07:46.541Z,3.20
2023-02-27T15:08:46.522Z,3.20
2023-02-27T15:09:46.473Z,2.30
2023-02-27T15:10:46.404Z,6.40
2023-02-27T15:11:57.542Z,3.30
2023-02-27T15:12:46.344Z,4.70
2023-02-27T15:13:46.302Z,3.60
2023-02-27T15:14:46.247Z,4.30
2023-02-27T15:15:46.230Z,6.40
2023-02-27T15:16:46.206Z,3.40
2023-02-27T15:17:46.121Z,4.00
2023-02-27T15:18:46.071Z,3.50
2023-02-27T15:19:46.030Z,3.20
2023-02-27T15:20:45.983Z,4.00
2023-02-27T15:21:45.958Z,4.40
2023-02-27T15:22:45.882Z,3.80
2023-02-27T15:23:45.843Z,4.50
2023-02-27T15:24:50.363Z,4.30
2023-02-27T15:25:45.769Z,4.00
2023-02-27T15:26:45.729Z,4.50
2023-02-27T15:27:45.670Z,4.60
2023-02-27T15:28:45.658Z,4.30
2023-02-27T15:29:45.595Z,5.20
2023-02-27T15:30:45.538Z,4.60
2023-02-27T15:31:45.540Z,4.30
2023-02-27T15:32:45.491Z,4.00
2023-02-27T15:33:45.422Z,3.90
2023-02-27T15:34:45.366Z,4.70
2023-02-27T15:35:45.362Z,4.50
2023-02-27T15:36:45.293Z,3.90
2023-02-27T15:37:45.241Z,3.60
2023-02-27T15:38:45.211Z,3.50
2023-02-27T15:39:47.003Z,4.80
2023-02-27T15:40:45.109Z,3.80
2023-02-27T15:41:45.061Z,4.90
2023-02-27T15:42:45.025Z,4.20
2023-02-27T15:43:44.981Z,4.70
2023-02-27T15:44:44.937Z,4.10
2023-02-27T15:45:44.882Z,4.90
2023-02-27T15:46:44.886Z,3.70
2023-02-27T15:47:44.806Z,4.30
2023-02-27T15:48:44.774Z,3.90
2023-02-27T15:49:44.708Z,3.40
2023-02-27T15:50:44.687Z,3.30
2023-02-27T15:51:44.619Z,4.00
2023-02-27T15:52:44.590Z,3.70
2023-02-27T15:53:44.536Z,4.60
2023-02-27T15:54:44.482Z,4.20
2023-02-27T15:55:44.456Z,3.10
2023-02-27T15:56:44.411Z,3.80
2023-02-27T15:57:56.573Z,4.00
2023-02-27T15:58:44.370Z,3.80
2023-02-27T15:59:44.265Z,4.10
2023-02-27T16:00:44.260Z,4.90
2023-02-27T16:01:44.222Z,4.00
2023-02-27T16:02:44.217Z,2.80
2023-02-27T16:03:44.094Z,3.90
2023-02-27T16:04:44.039Z,3.40
2023-02-27T16:05:44.056Z,4.80
2023-02-27T16:06:44.009Z,4.80
2023-02-27T16:07:43.919Z,3.10
2023-02-27T16:08:43.862Z,3.40
2023-02-27T16:09:43.832Z,4.60
2023-02-27T16:10:43.807Z,4.10
2023-02-27T16:11:43.730Z,2.90
2023-02-27T16:12:43.717Z,5.10
2023-02-27T16:13:43.660Z,4.50
2023-02-27T16:14:43.676Z,5.70
2023-02-27T16:15:43.561Z,4.10
2023-02-27T16:16:43.633Z,3.70
2023-02-27T16:17:49.221Z,4.10
2023-02-27T16:18:45.509Z,3.60
2023-02-27T16:19:43.391Z,3.90
2023-02-27T16:20:43.336Z,3.70
2023-02-27T16:21:43.307Z,5.80
2023-02-27T16:22:43.258Z,4.70
2023-02-27T16:23:43.248Z,5.00
2023-02-27T16:24:43.177Z,3.60
2023-02-27T16:25:43.165Z,3.50
2023-02-27T16:26:43.081Z,5.70
2023-02-27T16:27:43.043Z,5.20
2023-02-27T16:28:43.009Z,4.50
2023-02-27T16:29:42.996Z,3.80
2023-02-27T16:30:42.923Z,4.60
2023-02-27T16:31:42.881Z,3.50
2023-02-27T16:32:42.870Z,4.90
2023-02-27T16:33:42.834Z,4.70
2023-02-27T16:34:46.431Z,5.80
2023-02-27T16:35:42.729Z,4.80
2023-02-27T16:36:42.639Z,4.40
2023-02-27T16:37:42.592Z,5.10
2023-02-27T16:38:42.553Z,3.00
2023-02-27T16:39:42.502Z,3.50
2023-02-27T16:40:42.572Z,3.70
2023-02-27T16:41:42.425Z,4.00
2023-02-27T16:42:42.390Z,5.20
2023-02-27T16:43:42.328Z,4.30
2023-02-27T16:44:42.298Z,3.50
2023-02-27T16:45:42.251Z,5.00
2023-02-27T16:46:42.226Z,3.40
2023-02-27T16:47:42.168Z,3.50
2023-02-27T16:48:42.107Z,4.40
2023-02-27T16:49:42.104Z,3.90
2023-02-27T16:50:42.033Z,4.00
2023-02-27T16:51:41.974Z,4.50
2023-02-27T16:52:41.961Z,4.70
2023-02-27T16:53:41.938Z,4.20
2023-02-27T16:54:42.159Z,4.60
2023-02-27T16:55:41.824Z,3.90
2023-02-27T16:56:42.032Z,4.50
2023-02-27T16:57:41.720Z,5.10
2023-02-27T16:58:41.681Z,6.30
2023-02-27T16:59:41.654Z,5.70
2023-02-27T17:00:41.582Z,3.60
2023-02-27T17:01:41.523Z,3.90
2023-02-27T17:02:41.534Z,5.50
2023-02-27T17:03:41.472Z,4.50
2023-02-27T17:04:41.443Z,3.80
2023-02-27T17:05:41.364Z,4.20
2023-02-27T17:06:41.328Z,5.30
2023-02-27T17:07:41.293Z,2.70
2023-02-27T17:08:41.293Z,3.30
2023-02-27T17:09:41.188Z,4.80
2023-02-27T17:10:41.146Z,3.90
2023-02-27T17:11:41.099Z,4.80
2023-02-27T17:12:42.992Z,4.70
2023-02-27T17:13:40.999Z,2.90
2023-02-27T17:14:40.972Z,3.90
2023-02-27T17:15:40.912Z,4.90
2023-02-27T17:16:40.909Z,4.00
2023-02-27T17:17:40.836Z,5.20
2023-02-27T17:18:40.785Z,6.00
2023-02-27T17:19:40.815Z,5.40
2023-02-27T17:20:40.703Z,3.50
2023-02-27T17:21:40.639Z,3.70
2023-02-27T17:22:40.608Z,4.00
2023-02-27T17:23:40.572Z,4.20
2023-02-27T17:24:40.526Z,3.00
2023-02-27T17:25:40.488Z,5.90
2023-02-27T17:26:40.443Z,3.40
2023-02-27T17:27:40.388Z,4.30
2023-02-27T17:28:40.364Z,4.00
2023-02-27T17:29:40.283Z,5.10
2023-02-27T17:30:40.271Z,4.40
2023-02-27T17:31:40.190Z,3.60
2023-02-27T17:32:40.151Z,3.40
2023-02-27T17:33:40.121Z,4.70
2023-02-27T17:34:40.057Z,4.10
2023-02-27T17:35:40.027Z,5.90
2023-02-27T17:36:39.997Z,3.90
2023-02-27T17:37:39.934Z,4.80
2023-02-27T17:38:39.907Z,5.00
2023-02-27T17:39:39.909Z,3.70
2023-02-27T17:40:39.812Z,3.80
2023-02-27T17:41:39.763Z,3.20
2023-02-27T17:42:39.708Z,3.30
2023-02-27T17:43:39.673Z,4.50
2023-02-27T17:44:39.648Z,4.40
2023-02-27T17:45:39.577Z,3.60
2023-02-27T17:46:39.549Z,3.50
2023-02-27T17:47:39.530Z,4.10
2023-02-27T17:48:39.457Z,5.10
2023-02-27T17:49:39.408Z,3.90
2023-02-27T17:50:39.373Z,4.00
2023-02-27T17:51:39.310Z,4.40
2023-02-27T17:52:39.265Z,5.80
2023-02-27T17:53:39.207Z,4.10
2023-02-27T17:54:39.205Z,7.20
2023-02-27T17:55:40.184Z,4.10
2023-02-27T17:56:39.075Z,3.50
2023-02-27T17:57:39.035Z,3.40
2023-02-27T17:58:38.994Z,5.20
2023-02-27T17:59:38.938Z,3.40
2023-02-27T18:00:38.908Z,5.30
2023-02-27T18:01:38.915Z,3.30
2023-02-27T18:02:38.908Z,3.80
2023-02-27T18:03:38.779Z,4.30
2023-02-27T18:04:38.717Z,3.90
2023-02-27T18:05:38.665Z,4.40
2023-02-27T18:06:38.616Z,3.70
2023-02-27T18:07:38.605Z,3.80
2023-02-27T18:08:38.553Z,3.50
2023-02-27T18:09:38.482Z,4.50
2023-02-27T18:10:39.300Z,3.80
2023-02-27T18:11:38.440Z,4.50
2023-02-27T18:12:39.600Z,4.50
2023-02-27T18:13:38.421Z,3.90
2023-02-27T18:14:39.392Z,4.00
2023-02-27T18:15:43.758Z,4.20
2023-02-27T18:17:02.742Z,6.70
2023-02-27T18:17:39.504Z,4.50
2023-02-27T18:18:39.175Z,6.30
2023-02-27T18:19:39.005Z,5.40
2023-02-27T18:20:38.018Z,3.80
2023-02-27T18:21:38.006Z,4.70
2023-02-27T18:22:37.892Z,3.80
2023-02-27T18:23:37.854Z,4.90
2023-02-27T18:24:37.811Z,4.10
2023-02-27T18:25:37.762Z,5.80
2023-02-27T18:26:38.290Z,5.20
2023-02-27T18:27:37.677Z,4.90
2023-02-27T18:28:37.616Z,4.40
2023-02-27T18:29:37.601Z,5.80
2023-02-27T18:30:37.545Z,3.80
2023-02-27T18:31:37.535Z,4.20
2023-02-27T18:32:37.459Z,3.40
2023-02-27T18:33:37.413Z,5.80
2023-02-27T18:34:37.365Z,5.40
2023-02-27T18:35:37.342Z,4.40
2023-02-27T18:36:37.268Z,5.40
2023-02-27T18:37:37.235Z,4.30
2023-02-27T18:38:37.177Z,4.00
2023-02-27T18:39:37.148Z,4.20
2023-02-27T18:40:37.089Z,6.30
2023-02-27T18:41:37.048Z,4.20
2023-02-27T18:42:36.990Z,5.30
2023-02-27T18:43:36.968Z,5.40
2023-02-27T18:44:36.910Z,4.30
2023-02-27T18:45:36.862Z,4.80
2023-02-27T18:46:36.899Z,5.60
2023-02-27T18:47:36.761Z,4.90
2023-02-27T18:48:36.732Z,6.20
2023-02-27T18:49:36.706Z,5.50
2023-02-27T18:50:36.684Z,4.40
2023-02-27T18:51:36.633Z,4.90
2023-02-27T18:52:37.365Z,4.50
2023-02-27T18:53:36.514Z,6.60
2023-02-27T18:54:36.472Z,5.60
2023-02-27T18:55:36.399Z,5.50
2023-02-27T18:56:36.382Z,4.90
2023-02-27T18:57:36.368Z,5.00
2023-02-27T18:58:36.259Z,8.50
2023-02-27T18:59:36.229Z,4.70
2023-02-27T19:00:36.192Z,4.80
2023-02-27T19:01:36.139Z,7.30
2023-02-27T19:02:36.097Z,4.80
2023-02-27T19:03:36.255Z,6.20
2023-02-27T19:04:35.993Z,5.20
2023-02-27T19:05:35.962Z,4.80
2023-02-27T19:06:35.915Z,3.90
2023-02-27T19:07:35.865Z,6.30
2023-02-27T19:08:35.821Z,5.40
2023-02-27T19:09:35.769Z,5.70
2023-02-27T19:10:35.735Z,5.30
2023-02-27T19:11:35.698Z,4.90
2023-02-27T19:12:35.643Z,4.60
2023-02-27T19:13:35.584Z,4.50
2023-02-27T19:14:35.551Z,6.30
2023-02-27T19:15:35.492Z,5.50
2023-02-27T19:16:35.598Z,5.30
2023-02-27T19:17:35.393Z,5.10
2023-02-27T19:18:35.373Z,5.20
2023-02-27T19:19:35.325Z,6.00
2023-02-27T19:20:35.259Z,5.10
2023-02-27T19:21:35.219Z,6.50
2023-02-27T19:22:35.220Z,4.80
2023-02-27T19:23:35.141Z,4.80
2023-02-27T19:24:35.110Z,6.80
2023-02-27T19:25:35.040Z,5.80
2023-02-27T19:26:34.982Z,4.80
2023-02-27T19:27:34.946Z,6.10